Time;durP1;ratioP1;P1;durP2;ratioP2;P2;SDS_P1;SDS_P2;PMS_P1;PMS_P2;Temp;Humidity;BMP_temperature;BMP_pressure;BME280_temperature;BME280_humidity;BME280_pressure;Samples;Min_cycle;Max_cycle;Signal;HPM_P1;HPM_P2
2021/11/18 00:00:27;;;;;;;12.82;9.48;;;15.00;96.70;;;;;;5115082;28;20081;-72
2021/11/18 00:02:53;;;;;;;12.68;10.07;;;15.00;96.80;;;;;;5115252;28;20027;-71
2021/11/18 00:05:21;;;;;;;13.85;9.38;;;14.90;96.70;;;;;;5115109;28;20030;-72
2021/11/18 00:07:49;;;;;;;12.45;9.98;;;14.90;96.70;;;;;;5114276;28;20069;-72
2021/11/18 00:10:19;;;;;;;13.55;9.00;;;14.90;96.80;;;;;;5115045;28;20020;-72
2021/11/18 00:12:45;;;;;;;11.75;8.88;;;14.80;96.80;;;;;;5115180;28;20041;-72
2021/11/18 00:15:13;;;;;;;13.77;9.18;;;14.80;97.00;;;;;;5115151;28;20110;-71
2021/11/18 00:17:39;;;;;;;15.07;9.13;;;14.80;96.90;;;;;;5115021;28;20020;-70
2021/11/18 00:20:08;;;;;;;14.98;9.63;;;14.80;96.90;;;;;;5114987;28;20035;-71
2021/11/18 00:22:34;;;;;;;14.18;9.13;;;14.70;96.90;;;;;;5114643;28;20043;-71
2021/11/18 00:25:00;;;;;;;13.57;9.18;;;14.70;96.90;;;;;;5114864;28;20030;-70
2021/11/18 00:27:27;;;;;;;15.30;9.07;;;14.70;97.10;;;;;;5114838;28;20024;-71
2021/11/18 00:29:53;;;;;;;14.00;8.40;;;14.70;96.80;;;;;;5114864;28;20116;-72
2021/11/18 00:32:20;;;;;;;11.07;8.40;;;14.70;96.70;;;;;;5114594;28;20476;-73
2021/11/18 00:34:45;;;;;;;9.98;7.90;;;14.70;96.50;;;;;;5114612;28;20054;-70
2021/11/18 00:37:12;;;;;;;12.40;8.02;;;14.70;96.50;;;;;;5114681;28;20047;-71
2021/11/18 00:39:38;;;;;;;11.55;7.88;;;14.60;96.40;;;;;;5114540;28;20114;-73
2021/11/18 00:42:04;;;;;;;14.52;8.43;;;14.60;96.40;;;;;;5114912;28;20546;-71
2021/11/18 00:44:29;;;;;;;14.88;8.43;;;14.60;96.40;;;;;;5114516;27;20058;-70
2021/11/18 00:46:55;;;;;;;12.15;7.93;;;14.50;96.40;;;;;;5114333;28;20098;-71
2021/11/18 00:49:21;;;;;;;10.65;7.20;;;14.50;96.40;;;;;;5114124;28;20019;-71
2021/11/18 00:51:49;;;;;;;13.38;7.80;;;14.50;96.30;;;;;;5114063;28;20376;-71
2021/11/18 00:54:15;;;;;;;12.18;7.80;;;14.40;96.20;;;;;;5114371;28;20102;-71
2021/11/18 00:56:42;;;;;;;12.02;7.68;;;14.40;96.20;;;;;;5114158;28;20035;-71
2021/11/18 00:59:08;;;;;;;13.63;7.07;;;14.40;96.20;;;;;;5114084;28;20039;-71
2021/11/18 01:01:41;;;;;;;10.77;7.97;;;14.40;96.40;;;;;;5114215;28;20020;-71
2021/11/18 01:04:08;;;;;;;9.60;7.03;;;14.40;96.30;;;;;;5114274;28;20552;-70
2021/11/18 01:06:34;;;;;;;14.48;7.50;;;14.40;96.40;;;;;;5112721;28;20022;-71
2021/11/18 01:08:59;;;;;;;13.05;7.95;;;14.40;96.30;;;;;;5114100;28;20027;-71
2021/11/18 01:11:29;;;;;;;10.73;7.30;;;14.40;96.30;;;;;;5113874;28;20024;-72
2021/11/18 01:13:55;;;;;;;10.43;7.07;;;14.40;96.20;;;;;;5113725;28;20160;-73
2021/11/18 01:16:25;;;;;;;11.57;7.13;;;14.40;96.20;;;;;;5113977;28;20047;-71
2021/11/18 01:18:51;;;;;;;8.77;7.22;;;14.40;96.20;;;;;;5113440;28;20399;-71
2021/11/18 01:21:21;;;;;;;13.40;7.22;;;14.40;96.20;;;;;;5114303;28;20019;-71
2021/11/18 01:23:47;;;;;;;11.15;7.28;;;14.40;96.10;;;;;;5114042;28;20039;-71
2021/11/18 01:26:15;;;;;;;15.10;7.63;;;14.30;96.10;;;;;;5113789;28;20027;-71
2021/11/18 01:28:42;;;;;;;10.77;7.40;;;14.30;96.00;;;;;;5114490;28;20031;-71
2021/11/18 01:31:09;;;;;;;9.85;6.47;;;14.30;96.00;;;;;;5113605;28;20035;-70
2021/11/18 01:33:35;;;;;;;14.00;7.18;;;14.40;96.10;;;;;;5113370;28;20023;-70
2021/11/18 01:36:02;;;;;;;8.80;6.63;;;14.30;95.90;;;;;;5115429;28;20472;-72
2021/11/18 01:38:31;;;;;;;11.55;7.85;;;14.30;95.70;;;;;;5115947;28;20051;-71
2021/11/18 01:40:58;;;;;;;10.85;7.18;;;14.30;95.70;;;;;;5115997;28;20078;-70
2021/11/18 01:43:27;;;;;;;10.80;6.95;;;14.30;95.60;;;;;;5116129;28;20008;-70
2021/11/18 01:45:54;;;;;;;12.13;7.20;;;14.30;95.60;;;;;;5113199;28;20024;-70
2021/11/18 01:48:20;;;;;;;10.13;6.45;;;14.30;95.70;;;;;;5113507;28;20035;-71
2021/11/18 01:50:49;;;;;;;8.65;6.22;;;14.30;95.70;;;;;;5113271;28;20042;-71
2021/11/18 01:53:28;;;;;;;11.52;6.85;;;14.20;95.40;;;;;;5113370;28;20106;-69
2021/11/18 01:55:54;;;;;;;12.98;6.80;;;14.30;95.60;;;;;;5114451;28;20081;-71
2021/11/18 01:58:21;;;;;;;8.95;6.88;;;14.20;95.40;;;;;;5114793;28;20446;-70
2021/11/18 02:00:57;;;;;;;10.50;7.28;;;14.20;95.30;;;;;;5114305;28;20098;-71
2021/11/18 02:03:23;;;;;;;9.77;6.90;;;14.10;95.40;;;;;;5114573;28;20047;-71
2021/11/18 02:06:01;;;;;;;11.55;7.10;;;14.10;95.40;;;;;;5113298;28;20035;-70
2021/11/18 02:08:27;;;;;;;11.10;7.10;;;14.10;95.70;;;;;;5113089;28;20028;-71
2021/11/18 02:10:57;;;;;;;11.68;7.03;;;14.10;95.60;;;;;;5113075;28;20103;-71
2021/11/18 02:13:24;;;;;;;12.90;6.55;;;14.00;95.50;;;;;;5113753;28;20042;-69
2021/11/18 02:15:53;;;;;;;9.68;6.75;;;14.00;95.60;;;;;;5113288;28;21127;-71
2021/11/18 02:18:28;;;;;;;14.65;7.85;;;14.00;95.60;;;;;;5113019;28;20426;-71
2021/11/18 02:21:00;;;;;;;10.02;6.63;;;14.00;95.70;;;;;;5112818;28;20137;-71
2021/11/18 02:23:30;;;;;;;9.38;6.80;;;13.90;95.60;;;;;;5112819;28;20039;-71
2021/11/18 02:25:56;;;;;;;7.90;5.90;;;13.90;95.60;;;;;;5113263;28;20027;-70
2021/11/18 02:28:27;;;;;;;9.35;6.10;;;13.90;95.60;;;;;;5112994;28;20411;-70
2021/11/18 02:30:54;;;;;;;9.68;5.95;;;13.90;95.50;;;;;;5112969;28;20020;-70
2021/11/18 02:33:20;;;;;;;9.38;6.40;;;13.90;95.60;;;;;;5117107;28;20024;-70
2021/11/18 02:35:47;;;;;;;10.52;6.75;;;13.90;95.50;;;;;;5116942;28;20099;-71
2021/11/18 02:38:15;;;;;;;9.32;6.75;;;13.90;95.60;;;;;;5116808;28;20468;-72
2021/11/18 02:40:42;;;;;;;9.73;6.97;;;13.90;95.60;;;;;;5116834;28;20114;-70
2021/11/18 02:43:14;;;;;;;9.98;6.57;;;13.90;95.50;;;;;;5116818;28;20034;-70
2021/11/18 02:45:43;;;;;;;11.55;7.15;;;13.90;95.60;;;;;;5117018;28;20032;-70
2021/11/18 02:48:10;;;;;;;10.05;6.70;;;13.90;95.80;;;;;;5116944;28;20490;-71
2021/11/18 02:50:38;;;;;;;13.60;7.45;;;13.90;95.50;;;;;;5117179;28;20031;-71
2021/11/18 02:53:06;;;;;;;9.80;6.72;;;13.90;95.50;;;;;;5117560;28;20019;-72
2021/11/18 02:55:39;;;;;;;8.63;6.50;;;13.90;95.60;;;;;;5117723;28;20553;-70
2021/11/18 02:58:06;;;;;;;10.02;6.15;;;13.80;95.60;;;;;;5115377;28;20384;-72
2021/11/18 03:00:40;;;;;;;12.38;6.90;;;13.80;95.70;;;;;;5116609;28;20031;-72
2021/11/18 03:03:06;;;;;;;11.70;5.95;;;13.80;95.70;;;;;;5116374;28;20023;-71
2021/11/18 03:05:32;;;;;;;10.07;6.53;;;13.80;95.60;;;;;;5116590;27;20392;-70
2021/11/18 03:07:58;;;;;;;8.82;6.45;;;13.80;95.50;;;;;;5116450;28;20121;-72
2021/11/18 03:10:26;;;;;;;8.77;6.20;;;13.80;95.50;;;;;;5116297;28;20036;-72
2021/11/18 03:12:52;;;;;;;12.43;6.85;;;13.70;95.50;;;;;;5116447;28;20016;-71
2021/11/18 03:15:22;;;;;;;9.85;6.85;;;13.70;95.50;;;;;;5116426;28;20058;-71
2021/11/18 03:17:47;;;;;;;10.25;7.00;;;13.70;95.60;;;;;;5116336;28;20050;-71
2021/11/18 03:20:16;;;;;;;14.18;7.43;;;13.70;95.60;;;;;;5115963;28;20035;-70
2021/11/18 03:22:43;;;;;;;8.98;6.65;;;13.70;95.60;;;;;;5115952;28;20067;-70
2021/11/18 03:25:11;;;;;;;9.13;6.72;;;13.70;95.60;;;;;;5116192;28;20125;-71
2021/11/18 03:27:37;;;;;;;11.20;7.25;;;13.70;95.70;;;;;;5115961;28;20027;-71
2021/11/18 03:30:06;;;;;;;10.70;7.35;;;13.60;95.70;;;;;;5116129;28;20403;-71
2021/11/18 03:32:32;;;;;;;12.80;7.00;;;13.60;95.60;;;;;;5115860;28;20024;-71
2021/11/18 03:34:58;;;;;;;10.05;7.40;;;13.50;95.70;;;;;;5114675;28;20012;-71
2021/11/18 03:37:23;;;;;;;10.95;7.60;;;13.50;95.80;;;;;;5115564;28;20465;-71
2021/11/18 03:39:49;;;;;;;10.68;7.30;;;13.50;95.80;;;;;;5115582;28;20028;-71
2021/11/18 03:42:15;;;;;;;10.40;7.55;;;13.50;95.90;;;;;;5114931;28;20329;-70
2021/11/18 03:44:41;;;;;;;11.55;8.00;;;13.40;95.90;;;;;;5114706;28;20024;-70
2021/11/18 03:47:10;;;;;;;13.45;7.60;;;13.40;96.00;;;;;;5115468;28;20530;-71
2021/11/18 03:49:36;;;;;;;12.77;7.88;;;13.40;95.90;;;;;;5115646;28;20035;-71
2021/11/18 03:52:05;;;;;;;11.27;8.13;;;13.30;95.90;;;;;;5115315;28;20076;-70
2021/11/18 03:54:33;;;;;;;12.20;7.45;;;13.30;95.90;;;;;;5115456;28;20024;-70
2021/11/18 03:56:59;;;;;;;13.95;8.05;;;13.30;96.00;;;;;;5115479;28;20049;-71
2021/11/18 03:59:28;;;;;;;10.65;7.53;;;13.30;96.00;;;;;;5115169;28;20434;-71
2021/11/18 04:01:55;;;;;;;12.82;8.05;;;13.20;96.00;;;;;;5114898;28;20030;-70
2021/11/18 04:04:28;;;;;;;13.63;8.52;;;13.30;96.10;;;;;;5115137;28;20019;-70
2021/11/18 04:06:53;;;;;;;11.60;8.18;;;13.20;96.00;;;;;;5113713;28;20039;-70
2021/11/18 04:09:19;;;;;;;11.02;7.97;;;13.20;96.10;;;;;;5114893;28;20020;-71
2021/11/18 04:11:49;;;;;;;12.13;7.97;;;13.20;96.10;;;;;;5114748;28;20023;-71
2021/11/18 04:14:15;;;;;;;11.40;7.90;;;13.20;96.50;;;;;;5114958;28;20039;-71
2021/11/18 04:16:41;;;;;;;11.85;8.15;;;13.20;96.10;;;;;;5114850;28;20027;-71
2021/11/18 04:19:08;;;;;;;10.15;7.75;;;13.20;96.20;;;;;;5114782;28;20039;-70
2021/11/18 04:21:36;;;;;;;10.23;7.85;;;13.20;96.30;;;;;;5114650;28;20400;-70
2021/11/18 04:24:04;;;;;;;15.75;8.32;;;13.20;96.30;;;;;;5114875;28;20043;-71
2021/11/18 04:26:30;;;;;;;12.88;8.30;;;13.20;96.30;;;;;;5114726;28;20015;-71
2021/11/18 04:28:56;;;;;;;16.08;8.07;;;13.20;96.30;;;;;;5114733;28;20055;-70
2021/11/18 04:31:23;;;;;;;12.10;8.57;;;13.10;96.30;;;;;;5114642;28;20487;-72
2021/11/18 04:33:49;;;;;;;10.73;7.68;;;13.10;96.20;;;;;;5114680;28;20379;-71
2021/11/18 04:36:18;;;;;;;10.80;7.68;;;13.10;96.30;;;;;;5114693;28;20447;-72
2021/11/18 04:38:44;;;;;;;12.27;7.60;;;13.10;96.30;;;;;;5114399;28;20055;-71
2021/11/18 04:41:11;;;;;;;10.70;7.72;;;13.10;96.30;;;;;;5113013;28;20392;-70
2021/11/18 04:43:38;;;;;;;13.45;7.30;;;13.00;96.30;;;;;;5114458;28;20081;-69
2021/11/18 04:46:09;;;;;;;10.27;7.95;;;13.00;96.30;;;;;;5113130;28;20032;-72
2021/11/18 04:48:38;;;;;;;12.27;8.40;;;13.00;96.30;;;;;;5114427;28;20023;-70
2021/11/18 04:51:06;;;;;;;12.85;7.70;;;13.00;96.30;;;;;;5114219;28;20369;-71
2021/11/18 04:53:32;;;;;;;11.40;7.30;;;13.00;96.40;;;;;;5113951;28;20084;-72
2021/11/18 04:55:59;;;;;;;12.93;8.73;;;12.90;96.30;;;;;;5113908;28;20019;-71
2021/11/18 04:58:24;;;;;;;11.93;8.80;;;12.90;96.40;;;;;;5114187;28;20440;-71
2021/11/18 05:00:54;;;;;;;11.15;7.55;;;12.90;96.40;;;;;;5114089;28;20059;-72
2021/11/18 05:03:22;;;;;;;10.98;7.95;;;12.90;96.50;;;;;;5113986;28;20031;-72
2021/11/18 05:05:48;;;;;;;14.30;8.10;;;12.90;96.50;;;;;;5113916;28;20038;-71
2021/11/18 05:08:14;;;;;;;13.75;8.43;;;12.90;96.60;;;;;;5113914;28;20016;-72
2021/11/18 05:10:43;;;;;;;14.48;8.20;;;12.90;96.60;;;;;;5112399;28;20387;-70
2021/11/18 05:13:09;;;;;;;13.85;8.70;;;12.80;96.60;;;;;;5113735;28;20020;-72
2021/11/18 05:15:38;;;;;;;13.18;7.50;;;12.80;96.60;;;;;;5112414;28;20023;-71
2021/11/18 05:18:05;;;;;;;12.05;8.10;;;12.80;96.50;;;;;;5113693;28;20059;-70
2021/11/18 05:20:32;;;;;;;15.25;9.00;;;12.70;96.60;;;;;;5113734;28;20023;-72
2021/11/18 05:22:58;;;;;;;13.45;8.98;;;12.70;96.70;;;;;;5113935;28;20043;-71
2021/11/18 05:25:27;;;;;;;13.70;9.45;;;12.70;96.60;;;;;;5115610;28;20024;-71
2021/11/18 05:27:54;;;;;;;13.10;9.07;;;12.70;96.60;;;;;;5113850;28;20065;-71
2021/11/18 05:30:23;;;;;;;14.35;9.05;;;12.70;96.60;;;;;;5113809;27;20092;-71
2021/11/18 05:32:49;;;;;;;12.70;8.60;;;12.70;96.60;;;;;;5113616;28;20066;-72
2021/11/18 05:35:15;;;;;;;11.98;8.75;;;12.70;96.70;;;;;;5113493;28;20024;-70
2021/11/18 05:37:41;;;;;;;14.43;8.80;;;12.70;96.60;;;;;;5113386;28;20024;-72
2021/11/18 05:40:08;;;;;;;14.52;8.90;;;12.70;96.70;;;;;;5111857;28;20392;-71
2021/11/18 05:42:36;;;;;;;13.40;8.50;;;12.70;96.70;;;;;;5113178;28;20533;-70
2021/11/18 05:45:05;;;;;;;12.68;8.43;;;12.70;96.60;;;;;;5113330;28;20073;-71
2021/11/18 05:47:31;;;;;;;11.43;8.30;;;12.60;96.60;;;;;;5113396;28;20012;-70
2021/11/18 05:49:59;;;;;;;13.90;8.38;;;12.70;96.80;;;;;;5113368;28;20027;-70
2021/11/18 05:52:26;;;;;;;15.15;9.40;;;12.70;96.70;;;;;;5113576;28;20384;-71
2021/11/18 05:54:52;;;;;;;12.10;8.73;;;12.60;96.70;;;;;;5113680;27;20353;-70
2021/11/18 05:57:18;;;;;;;16.70;8.77;;;12.70;96.70;;;;;;5113799;28;20016;-71
2021/11/18 05:59:44;;;;;;;14.82;8.75;;;12.70;96.80;;;;;;5113327;28;20032;-72
2021/11/18 06:02:11;;;;;;;12.55;9.00;;;12.60;96.70;;;;;;5113519;28;20020;-72
2021/11/18 06:04:37;;;;;;;14.60;8.93;;;12.70;96.80;;;;;;5113593;28;20028;-70
2021/11/18 06:07:03;;;;;;;13.07;9.15;;;12.70;96.70;;;;;;5112708;28;20102;-72
2021/11/18 06:09:29;;;;;;;15.40;8.57;;;12.70;96.70;;;;;;5113502;28;20047;-72
2021/11/18 06:11:55;;;;;;;13.48;8.57;;;12.70;96.70;;;;;;5113394;28;20408;-72
2021/11/18 06:14:20;;;;;;;13.02;8.77;;;12.70;96.60;;;;;;5114477;28;20024;-71
2021/11/18 06:16:46;;;;;;;13.98;8.75;;;12.60;96.50;;;;;;5111910;28;20030;-72
2021/11/18 06:19:12;;;;;;;13.73;8.80;;;12.60;96.60;;;;;;5113196;28;20067;-70
2021/11/18 06:21:45;;;;;;;16.10;9.23;;;12.60;96.50;;;;;;5111823;28;20055;-73
2021/11/18 06:24:13;;;;;;;14.52;9.48;;;12.60;96.60;;;;;;5113310;28;20023;-70
2021/11/18 06:26:39;;;;;;;16.20;8.88;;;12.60;96.70;;;;;;5113497;28;20036;-71
2021/11/18 06:29:05;;;;;;;13.23;8.52;;;12.60;96.70;;;;;;5113183;28;20028;-71
2021/11/18 06:31:32;;;;;;;14.98;8.82;;;12.60;96.70;;;;;;5113069;28;20085;-71
2021/11/18 06:33:58;;;;;;;13.45;9.43;;;12.60;96.70;;;;;;5113102;28;20069;-70
2021/11/18 06:36:25;;;;;;;13.30;9.02;;;12.60;96.70;;;;;;5096708;28;20028;-70
2021/11/18 06:38:52;;;;;;;17.40;8.63;;;12.60;96.70;;;;;;5093010;28;20028;-70
2021/11/18 06:41:21;;;;;;;13.23;8.93;;;12.60;96.70;;;;;;5092757;28;20035;-71
2021/11/18 06:43:48;;;;;;;12.50;8.50;;;12.70;97.10;;;;;;5093040;28;20321;-72
2021/11/18 06:46:15;;;;;;;17.33;9.40;;;12.70;96.80;;;;;;5093166;28;20024;-72
2021/11/18 06:48:41;;;;;;;13.80;9.65;;;12.70;96.80;;;;;;5093272;28;20024;-70
2021/11/18 06:51:14;;;;;;;12.45;8.85;;;12.60;96.60;;;;;;5106100;28;20027;-70
2021/11/18 06:53:41;;;;;;;12.52;9.07;;;12.60;96.80;;;;;;5114837;28;20056;-70
2021/11/18 06:56:08;;;;;;;14.93;9.02;;;12.60;96.70;;;;;;5078922;28;20111;-70
2021/11/18 06:58:34;;;;;;;13.35;8.95;;;12.60;96.70;;;;;;5092779;28;20055;-70
2021/11/18 07:01:00;;;;;;;14.88;9.48;;;12.60;96.80;;;;;;5092679;28;20064;-71
2021/11/18 07:03:26;;;;;;;13.68;9.15;;;12.60;96.70;;;;;;5092481;28;20027;-69
2021/11/18 07:05:52;;;;;;;20.27;10.25;;;12.70;96.80;;;;;;5092493;28;20119;-70
2021/11/18 07:08:18;;;;;;;14.75;9.52;;;12.70;96.60;;;;;;5092011;28;20346;-73
2021/11/18 07:10:47;;;;;;;17.45;9.57;;;12.80;96.70;;;;;;5090783;28;20032;-74
2021/11/18 07:13:17;;;;;;;18.38;9.90;;;12.80;96.50;;;;;;5092435;28;20063;-72
2021/11/18 07:15:42;;;;;;;14.90;9.02;;;12.80;96.50;;;;;;5093288;28;20028;-72
2021/11/18 07:18:08;;;;;;;20.25;9.48;;;12.90;96.50;;;;;;5111278;28;20477;-71
2021/11/18 07:20:34;;;;;;;19.88;9.77;;;12.90;96.40;;;;;;5116109;28;20031;-71
2021/11/18 07:23:00;;;;;;;13.95;9.85;;;13.00;96.30;;;;;;5116004;28;20047;-74
2021/11/18 07:25:28;;;;;;;15.35;9.20;;;13.00;96.20;;;;;;5112870;28;20032;-72
2021/11/18 07:27:54;;;;;;;15.55;9.63;;;13.10;96.20;;;;;;5114319;28;20012;-70
2021/11/18 07:30:22;;;;;;;16.23;8.80;;;13.10;96.10;;;;;;5108716;28;20093;-71
2021/11/18 07:32:48;;;;;;;14.90;9.00;;;13.20;96.00;;;;;;5116031;28;20498;-71
2021/11/18 07:35:15;;;;;;;17.55;9.57;;;13.30;95.80;;;;;;5112410;28;20024;-71
2021/11/18 07:37:40;;;;;;;12.43;8.95;;;13.30;95.70;;;;;;5115671;28;20472;-71
2021/11/18 07:40:11;;;;;;;14.13;9.52;;;13.30;95.50;;;;;;5112482;28;20101;-73
2021/11/18 07:42:37;;;;;;;15.18;8.88;;;13.30;95.60;;;;;;5114232;28;20088;-70
2021/11/18 07:45:04;;;;;;;12.50;9.32;;;13.40;95.40;;;;;;5111070;28;20032;-71
2021/11/18 07:47:30;;;;;;;14.95;9.52;;;13.30;95.30;;;;;;5115713;28;20041;-70
2021/11/18 07:49:56;;;;;;;14.35;8.95;;;13.30;95.30;;;;;;5115400;28;20044;-72
2021/11/18 07:52:22;;;;;;;14.45;9.07;;;13.40;95.50;;;;;;5111949;28;20492;-70
2021/11/18 07:54:48;;;;;;;12.85;8.60;;;13.40;95.20;;;;;;5098947;28;20028;-73
2021/11/18 07:57:13;;;;;;;14.35;8.45;;;13.40;95.10;;;;;;5094905;28;20420;-70
2021/11/18 07:59:39;;;;;;;13.90;9.02;;;13.40;95.10;;;;;;5094735;28;20097;-72
2021/11/18 08:02:05;;;;;;;13.90;8.52;;;13.40;95.10;;;;;;5096742;28;20047;-72
2021/11/18 08:04:32;;;;;;;12.32;8.48;;;13.40;95.10;;;;;;5115145;28;20032;-73
2021/11/18 08:07:03;;;;;;;12.18;8.55;;;13.40;95.10;;;;;;5115395;28;20489;-72
2021/11/18 08:09:38;;;;;;;13.23;9.02;;;13.40;95.00;;;;;;5116484;28;20370;-73
2021/11/18 08:12:43;;;;;;;16.65;8.60;;;13.50;95.00;;;;;;5116370;28;20047;-75
2021/11/18 08:15:25;;;;;;;15.88;8.30;;;13.50;94.90;;;;;;5053569;28;20061;-74
2021/11/18 08:17:51;;;;;;;14.75;8.38;;;13.50;94.90;;;;;;5070366;28;20039;-73
2021/11/18 08:20:18;;;;;;;13.52;8.23;;;13.60;94.80;;;;;;5114790;28;20036;-75
2021/11/18 08:22:44;;;;;;;14.30;8.70;;;13.70;94.70;;;;;;5114863;28;20408;-75
2021/11/18 08:25:38;;;;;;;14.77;8.80;;;13.70;94.90;;;;;;5112816;28;20080;-74
2021/11/18 08:28:29;;;;;;;11.50;7.78;;;13.70;94.60;;;;;;5074742;28;20033;-71
2021/11/18 08:30:55;;;;;;;12.82;7.00;;;13.80;94.80;;;;;;5073559;28;20035;-71
2021/11/18 08:33:21;;;;;;;14.15;7.20;;;13.90;94.20;;;;;;5073912;28;20028;-72
2021/11/18 08:35:47;;;;;;;11.20;7.25;;;13.90;94.10;;;;;;5073976;28;20020;-72
2021/11/18 08:38:16;;;;;;;12.45;7.43;;;14.00;94.20;;;;;;5073837;28;20032;-71
2021/11/18 08:40:50;;;;;;;19.35;7.50;;;14.10;94.00;;;;;;5074116;28;20024;-72
2021/11/18 08:43:17;;;;;;;13.27;7.38;;;14.10;94.10;;;;;;5073900;28;20043;-72
2021/11/18 08:45:43;;;;;;;12.55;6.93;;;14.20;93.80;;;;;;5073876;28;20040;-72
2021/11/18 08:48:10;;;;;;;11.80;7.25;;;14.20;93.60;;;;;;5072413;28;20505;-71
2021/11/18 08:50:39;;;;;;;9.45;6.82;;;14.30;93.80;;;;;;5072449;28;20020;-72
2021/11/18 08:53:05;;;;;;;12.52;7.00;;;14.40;93.60;;;;;;5073682;28;20092;-72
2021/11/18 08:55:35;;;;;;;14.88;7.55;;;14.50;93.60;;;;;;5073696;28;20026;-72
2021/11/18 08:58:02;;;;;;;14.52;7.25;;;14.60;93.50;;;;;;5073572;28;20025;-72
2021/11/18 09:00:44;;;;;;;14.38;6.97;;;14.60;93.30;;;;;;5073367;28;20025;-73
2021/11/18 09:03:10;;;;;;;10.48;6.68;;;14.70;93.20;;;;;;5073350;28;20020;-73
2021/11/18 09:05:36;;;;;;;10.20;6.40;;;14.70;93.10;;;;;;5072002;28;20535;-71
2021/11/18 09:08:04;;;;;;;11.43;6.28;;;14.80;93.00;;;;;;5072143;28;20086;-71
2021/11/18 09:10:31;;;;;;;11.40;7.13;;;14.90;92.90;;;;;;5073228;28;20059;-70
2021/11/18 09:12:57;;;;;;;13.10;7.20;;;15.00;92.80;;;;;;5073528;28;20025;-72
2021/11/18 09:15:27;;;;;;;11.88;7.20;;;15.10;93.10;;;;;;5073422;28;20025;-72
2021/11/18 09:17:54;;;;;;;14.13;6.95;;;15.10;92.60;;;;;;5071678;28;20485;-72
2021/11/18 09:20:21;;;;;;;16.67;6.88;;;15.20;92.50;;;;;;5073082;28;20072;-74
2021/11/18 09:22:48;;;;;;;11.57;7.05;;;15.20;92.20;;;;;;5073007;28;20119;-75
2021/11/18 09:25:15;;;;;;;14.70;7.22;;;15.30;92.20;;;;;;5071575;28;20119;-74
2021/11/18 09:27:53;;;;;;;11.00;6.30;;;15.40;92.20;;;;;;5073181;28;20335;-73
2021/11/18 09:30:26;;;;;;;15.90;7.00;;;15.50;92.20;;;;;;5071895;28;20021;-73
2021/11/18 09:32:53;;;;;;;10.55;6.72;;;15.60;92.20;;;;;;5074649;28;20028;-72
2021/11/18 09:35:24;;;;;;;13.02;6.13;;;15.70;91.90;;;;;;5075168;28;20091;-70
2021/11/18 09:37:50;;;;;;;10.05;6.57;;;15.70;91.80;;;;;;5073373;28;20023;-72
2021/11/18 09:40:18;;;;;;;14.00;6.32;;;15.80;91.70;;;;;;5073025;28;20034;-72
2021/11/18 09:43:22;;;;;;;8.95;6.13;;;15.90;91.50;;;;;;5072913;28;20017;-72
2021/11/18 09:46:17;;;;;;;8.73;5.35;;;16.00;91.10;;;;;;5073110;28;20035;-69
2021/11/18 09:49:13;;;;;;;11.50;6.28;;;16.10;90.90;;;;;;5051685;28;20127;-71
2021/11/18 09:51:58;;;;;;;10.80;6.07;;;16.10;90.50;;;;;;5072771;28;20028;-71
2021/11/18 09:54:40;;;;;;;9.38;6.25;;;16.20;90.70;;;;;;5073048;28;20107;-71
2021/11/18 09:57:21;;;;;;;10.80;5.82;;;16.30;90.40;;;;;;5072850;28;20076;-70
2021/11/18 10:00:08;;;;;;;9.48;5.63;;;16.30;90.20;;;;;;5072626;28;20497;-71
2021/11/18 10:03:06;;;;;;;12.32;6.15;;;16.40;89.40;;;;;;5072758;28;20100;-68
2021/11/18 10:05:56;;;;;;;18.17;6.88;;;16.50;89.70;;;;;;5072698;28;20355;-70
2021/11/18 10:08:28;;;;;;;9.68;6.05;;;16.60;89.50;;;;;;5072376;28;20029;-68
2021/11/18 10:11:03;;;;;;;7.75;5.40;;;16.70;88.90;;;;;;5072514;28;20017;-72
2021/11/18 10:13:41;;;;;;;10.13;5.57;;;16.80;88.30;;;;;;5072579;28;20020;-69
2021/11/18 10:16:19;;;;;;;11.85;5.75;;;16.80;88.20;;;;;;5072622;28;20107;-70
2021/11/18 10:18:52;;;;;;;11.02;5.43;;;16.90;87.30;;;;;;5086803;28;20021;-67
2021/11/18 10:21:25;;;;;;;11.70;6.43;;;16.90;86.40;;;;;;5072312;28;20029;-69
2021/11/18 10:23:55;;;;;;;;;;;17.00;87.00;;;;;;5072922;28;20033;-71
2021/11/18 10:26:35;;;;;;;9.07;5.40;;;17.10;84.30;;;;;;5072540;28;19905;-70
2021/11/18 10:29:01;;;;;;;15.85;5.45;;;17.10;86.70;;;;;;5072423;28;20057;-69
2021/11/18 10:31:50;;;;;;;12.32;6.03;;;17.20;86.20;;;;;;5072049;28;20071;-71
2021/11/18 10:34:18;;;;;;;12.93;5.75;;;17.30;86.50;;;;;;5070884;28;20082;-69
2021/11/18 10:36:49;;;;;;;15.98;5.63;;;17.40;86.10;;;;;;5072264;28;20465;-69
2021/11/18 10:39:39;;;;;;;15.25;6.10;;;17.40;85.50;;;;;;5072164;28;20107;-72
2021/11/18 10:42:31;;;;;;;15.85;5.90;;;17.50;84.90;;;;;;5072359;28;20028;-70
2021/11/18 10:45:03;;;;;;;12.52;5.30;;;17.60;85.10;;;;;;5071010;28;20020;-70
2021/11/18 10:47:31;;;;;;;14.05;5.80;;;17.60;84.10;;;;;;5071946;28;20040;-69
2021/11/18 10:50:27;;;;;;;12.60;5.88;;;17.70;83.80;;;;;;5072306;28;20052;-72
2021/11/18 10:53:20;;;;;;;13.02;4.88;;;17.80;83.20;;;;;;5073884;28;20037;-71
2021/11/18 10:56:07;;;;;;;14.23;4.95;;;17.80;82.40;;;;;;5075915;28;20436;-70
2021/11/18 10:58:39;;;;;;;10.45;5.10;;;17.90;82.10;;;;;;5076136;28;20032;-71
2021/11/18 11:01:25;;;;;;;8.77;5.18;;;17.90;81.50;;;;;;5075816;28;20050;-69
2021/11/18 11:03:58;;;;;;;12.55;5.32;;;18.00;80.90;;;;;;5077068;28;20389;-80
2021/11/18 11:06:29;;;;;;;10.95;5.03;;;18.10;81.10;;;;;;5076203;28;20051;-75
2021/11/18 11:09:17;;;;;;;13.30;5.40;;;18.10;80.10;;;;;;5077949;28;20035;-89
2021/11/18 11:11:51;;;;;;;7.97;5.00;;;18.20;79.60;;;;;;5087112;28;20088;-80
2021/11/18 11:14:29;;;;;;;9.05;4.90;;;18.20;79.90;;;;;;5077478;28;20020;-83
2021/11/18 11:17:26;;;;;;;7.43;4.80;;;18.30;79.80;;;;;;5075781;28;20035;-80
2021/11/18 11:20:13;;;;;;;11.18;5.15;;;18.40;79.10;;;;;;5075647;28;20052;-79
2021/11/18 11:23:16;;;;;;;9.00;5.18;;;18.40;78.00;;;;;;5075141;28;20060;-80
2021/11/18 11:26:02;;;;;;;9.50;5.63;;;18.50;78.30;;;;;;5075984;28;20107;-79
2021/11/18 11:28:52;;;;;;;8.38;4.85;;;18.50;78.30;;;;;;5075567;28;20029;-74
2021/11/18 11:31:42;;;;;;;9.27;4.68;;;18.50;78.10;;;;;;5075325;28;20478;-73
2021/11/18 11:34:46;;;;;;;11.48;5.10;;;18.60;77.30;;;;;;5075348;28;20028;-72
2021/11/18 11:37:49;;;;;;;8.82;4.75;;;18.70;77.20;;;;;;5075225;28;20048;-75
2021/11/18 11:40:37;;;;;;;17.17;5.43;;;18.70;77.40;;;;;;5075161;28;20048;-76
2021/11/18 11:43:18;;;;;;;9.25;5.45;;;18.80;76.50;;;;;;5075312;28;20032;-79
2021/11/18 11:45:53;;;;;;;8.05;5.13;;;18.90;76.70;;;;;;5075038;28;20021;-80
2021/11/18 11:48:37;;;;;;;8.45;4.88;;;19.00;76.60;;;;;;5075493;28;20082;-76
2021/11/18 11:51:17;;;;;;;;;;;19.00;75.00;;;;;;5075331;28;20115;-78
2021/11/18 11:54:09;;;;;;;7.63;4.47;;;19.00;73.40;;;;;;5074961;28;20389;-76
2021/11/18 11:56:38;;;;;;;8.43;5.13;;;19.20;75.30;;;;;;5074712;28;20021;-77
2021/11/18 11:59:24;;;;;;;8.90;4.65;;;19.20;73.60;;;;;;5073169;28;20032;-75
2021/11/18 12:02:04;;;;;;;14.40;5.15;;;19.20;73.20;;;;;;5074705;28;20041;-76
2021/11/18 12:04:48;;;;;;;8.70;4.50;;;19.30;73.30;;;;;;5074224;28;20085;-75
2021/11/18 12:07:31;;;;;;;6.30;3.90;;;19.30;72.30;;;;;;5074848;28;20032;-75
2021/11/18 12:10:00;;;;;;;10.55;3.80;;;19.40;72.40;;;;;;5074843;28;20028;-73
2021/11/18 12:12:46;;;;;;;6.93;4.30;;;19.40;71.80;;;;;;5074766;28;20036;-77
2021/11/18 12:15:19;;;;;;;7.38;4.75;;;19.40;72.20;;;;;;5074475;28;20024;-75
2021/11/18 12:17:48;;;;;;;15.70;4.40;;;19.50;72.10;;;;;;5074244;28;20031;-72
2021/11/18 12:20:18;;;;;;;5.63;3.70;;;19.50;71.20;;;;;;5074183;28;20489;-74
2021/11/18 12:22:44;;;;;;;6.68;4.53;;;19.50;70.00;;;;;;5074263;28;20465;-74
2021/11/18 12:25:20;;;;;;;8.88;4.22;;;19.60;70.20;;;;;;5074107;28;20070;-74
2021/11/18 12:27:48;;;;;;;8.20;4.80;;;19.60;69.70;;;;;;5074634;28;20032;-74
2021/11/18 12:30:30;;;;;;;8.93;5.35;;;19.70;69.70;;;;;;5074159;28;20024;-76
2021/11/18 12:33:17;;;;;;;7.95;5.07;;;19.80;69.70;;;;;;5074015;28;20036;-74
2021/11/18 12:35:49;;;;;;;11.05;4.75;;;19.80;69.20;;;;;;5075602;28;20166;-80
2021/11/18 12:38:34;;;;;;;11.68;5.03;;;19.90;69.40;;;;;;5076921;28;20029;-81
2021/11/18 12:41:24;;;;;;;9.55;4.20;;;19.90;69.30;;;;;;5075293;28;20051;-79
2021/11/18 12:44:07;;;;;;;10.82;4.50;;;20.00;68.80;;;;;;5075072;28;20081;-81
2021/11/18 12:46:51;;;;;;;7.95;4.15;;;20.00;68.60;;;;;;5074882;28;20067;-82
2021/11/18 12:49:23;;;;;;;8.18;4.28;;;20.10;69.00;;;;;;5074267;28;20067;-80
2021/11/18 12:52:09;;;;;;;7.78;4.45;;;20.10;68.70;;;;;;5074181;28;20025;-80
2021/11/18 12:55:13;;;;;;;6.47;3.65;;;20.10;67.10;;;;;;5074347;28;20100;-78
2021/11/18 12:57:46;;;;;;;7.80;4.05;;;20.20;66.60;;;;;;5074237;28;20020;-81
2021/11/18 13:00:16;;;;;;;7.53;4.55;;;20.20;66.10;;;;;;5073579;28;20481;-77